Flight Track Log - Related Links

Times and Time Zones

All times are in EST time to prevent confusion due to time zone crossing. See the ASQ5740 flight status page for this flight to view local times or setup timezone preferences in your user account.


Time Position Orientation Groundspeed Altitude Reporting Facility
EST Latitude Longitude Course Direction KTS MPH feet Rate Location/Type
Sun 12:56:04 PM 38.9500 -77.5000 238° Southwest 166 191 1,700  Level Potomac TRACON
Sun 12:57:04 PM 38.9000 -77.5500 218° Southwest 247 284 4,100 2,926 Climbing Potomac TRACON
Sun 12:58:00 PM 38.7353 -77.7282 185° South  Level Estimated
Sun 12:58:05 PM 38.8333 -77.5500 180° South 253 291 7,600  Level Potomac TRACON
Sun 12:59:00 PM 38.6645 -77.8173 270° West  Level Estimated
Sun 01:00:00 PM 38.5936 -77.9061 238° Southwest  Level Estimated
Sun 01:00:16 PM 38.6492 -77.5642 183° South 296 341 12,200  Level Washington Center
Sun 01:01:00 PM 38.5226 -77.9948 238° Southwest  Level Estimated
Sun 01:01:17 PM 38.5575 -77.5642 180° South 322 371 14,200  Level Washington Center
Sun 01:02:14 PM 38.4531 -77.5669 181° South 354 407 14,500 356 Climbing Washington Center
Sun 01:03:15 PM 38.3692 -77.6044 199° South 365 420 14,900 443 Climbing Washington Center
Sun 01:04:16 PM 38.3069 -77.7033 231° Southwest 350 403 15,400 793 Climbing Washington Center
Sun 01:05:16 PM 38.2425 -77.8044 231° Southwest 355 409 16,500 1,322 Climbing Washington Center
Sun 01:06:14 PM 38.1803 -77.9003 230° Southwest 360 414 18,000 1,322 Climbing Washington Center
Sun 01:07:14 PM 38.1200 -77.9936 231° Southwest 360 414 19,100 1,041 Climbing Washington Center
Sun 01:08:15 PM 38.0578 -78.0864 230° Southwest 354 407 20,100 1,033 Climbing Washington Center
Sun 01:09:16 PM 37.9950 -78.1897 232° Southwest 341 392 21,200 1,041 Climbing Washington Center
Sun 01:10:16 PM 37.9347 -78.2747 228° Southwest 350 403 22,200 966 Climbing Washington Center
Sun 01:11:14 PM 37.8678 -78.3722 229° Southwest 355 409 23,100 814 Climbing Washington Center
Sun 01:12:14 PM 37.7989 -78.4669 227° Southwest 360 414 23,800 595 Climbing Washington Center
Sun 01:13:15 PM 37.7297 -78.5642 228° Southwest 365 420 24,300 545 Climbing Washington Center
Sun 01:14:15 PM 37.6539 -78.6739 229° Southwest 378 435 24,900 500 Climbing Washington Center
Sun 01:15:15 PM 37.5825 -78.7733 228° Southwest 378 435 25,300 454 Climbing Washington Center
Sun 01:16:14 PM 37.5131 -78.8750 229° Southwest 378 435 25,800 500 Climbing Washington Center
Sun 01:17:15 PM 37.4414 -78.9739 228° Southwest 378 435 26,300 496 Climbing Washington Center
Sun 01:18:15 PM 37.3678 -79.0753 228° Southwest 383 441 26,800 496 Climbing Washington Center
Sun 01:19:16 PM 37.2936 -79.1789 228° Southwest 395 455 27,300 492 Climbing Washington Center
Sun 01:20:17 PM 37.2283 -79.2725 229° Southwest 400 460 27,800 356 Climbing Washington Center
Sun 01:21:14 PM 37.1561 -79.3783 229° Southwest 400 460 28,000 102 Climbing Washington Center
Sun 01:22:15 PM 37.0839 -79.4867 230° Southwest 400 460 28,000  Level Washington Center
Sun 01:23:16 PM 37.0114 -79.5950 230° Southwest 405 466 28,000  Level Washington Center
Sun 01:25:30 PM 36.8317 -79.8556 229° Southwest 410 472 28,000  Level Atlanta Center
Sun 01:26:30 PM 36.7642 -79.9550 230° Southwest 419 482 28,000  Level Atlanta Center
Sun 01:27:30 PM 36.6864 -80.0678 229° Southwest 424 488 28,000  Level Atlanta Center
Sun 01:28:30 PM 36.6086 -80.1803 229° Southwest 424 488 28,000  Level Atlanta Center
Sun 01:29:30 PM 36.5264 -80.2850 226° Southwest 424 488 28,000 -600 Level Atlanta Center
Sun 01:30:30 PM 36.3903 -80.3300 195° South 424 488 26,800 -1,100 Descending Atlanta Center
Sun 01:31:30 PM 36.2644 -80.3769 197° South 448 516 25,800 -1,000 Descending Atlanta Center
Sun 01:32:30 PM 36.1406 -80.4186 195° South 466 536 24,800 -950 Descending Atlanta Center
Sun 01:33:30 PM 36.0103 -80.4603 195° South 471 542 23,900 -950 Descending Atlanta Center
Sun 01:34:30 PM 35.9050 -80.5008 197° South 465 535 22,900 -1,000 Descending Atlanta Center
Sun 01:35:30 PM 35.7850 -80.5369 194° South 452 520 21,900 -1,050 Descending Atlanta Center
Sun 01:36:30 PM 35.7028 -80.6503 228° Southwest 405 466 20,800 -1,000 Descending Atlanta Center
Sun 01:37:30 PM 35.6469 -80.7497 235° Southwest 393 452 19,900 -1,050 Descending Atlanta Center
Sun 01:38:30 PM 35.5794 -80.8775 237° Southwest 398 458 18,700 -1,340 Descending Atlanta Center
Sun 01:39:04 PM 35.5519 -80.9450 243° Southwest 401 461 17,800 -1,700 Descending Atlanta Center
Sun 01:39:30 PM 35.5219 -80.9947 233° Southwest 403 464 17,000 -1,935 Descending Atlanta Center
Sun 01:39:35 PM 35.5203 -81.0100 262° West 397 457 16,800 3,000 Descending Atlanta Center
Sun 01:40:30 PM 35.4600 -81.1039 232° Southwest 403 464 20,000 -1,770 Climbing Atlanta Center
Sun 01:40:36 PM 35.4603 -81.1194 271° West 388 447 15,000 -5,000 Descending Atlanta Center
Sun 01:41:30 PM 35.4167 -81.2100 239° Southwest 397 457 15,000  Level Atlanta Center
Sun 01:41:37 PM 35.4044 -81.2283 231° Southwest 375 432 15,000 -800 Level Atlanta Center
Sun 01:42:30 PM 35.3606 -81.3214 240° Southwest 392 451 14,200 -1,180 Descending Atlanta Center
Sun 01:42:38 PM 35.3464 -81.3397 227° Southwest 371 427 13,800 -1,300 Descending Atlanta Center
Sun 01:43:30 PM 35.3003 -81.4203 235° Southwest 387 445 12,900 -1,180 Descending Atlanta Center
Sun 01:43:39 PM 35.2861 -81.4486 239° Southwest 376 433 12,600 -1,100 Descending Atlanta Center
Sun 01:44:30 PM 35.2481 -81.5211 237° Southwest 373 429 11,800 -1,243 Descending Atlanta Center
Sun 01:45:30 PM 35.1917 -81.6294 238° Southwest 361 415 10,300 -900 Descending Atlanta Center
Sun 01:46:30 PM 35.1394 -81.7250 236° Southwest 351 404 10,000 -150 Descending Atlanta Center
Sun 01:47:30 PM 35.0869 -81.8253 237° Southwest 351 404 10,000 -250 Level Atlanta Center
Sun 01:48:30 PM 35.0594 -81.9150 249° West 298 343 9,500 -1,300 Descending Atlanta Center
Sun 01:49:30 PM 35.0461 -81.9964 259° West 286 329 7,400 -2,000 Descending Atlanta Center
Sun 01:50:30 PM 35.0203 -82.0758 248° West 265 305 5,500 -1,850 Descending Atlanta Center
Sun 01:51:30 PM 34.9900 -82.1372 239° Southwest 239 275 3,700 -1,000 Descending Atlanta Center
Sun 01:52:30 PM 34.9639 -82.2039 244° Southwest 232 267 3,500 -200 Descending Atlanta Center

Login

Don't have an account? Register now (free) for customized features, flight alerts, and more!